Time;durP1;ratioP1;P1;durP2;ratioP2;P2;SDS_P1;SDS_P2;PMS_P1;PMS_P2;Temp;Humidity;BMP_temperature;BMP_pressure;BME280_temperature;BME280_humidity;BME280_pressure;Samples;Min_cycle;Max_cycle;Signal;HPM_P1;HPM_P2
2023/02/07 00:01:06;;;;;;;;;;;;;;;-3.28;74.86;103838.69;4105867;28;20037;-62
2023/02/07 00:03:07;;;;;;;;;;;;;;;-3.37;74.62;103845.81;4107428;28;20010;-63
2023/02/07 00:05:09;;;;;;;;;;;;;;;-3.43;74.66;103854.69;4106881;28;20457;-62
2023/02/07 00:07:11;;;;;;;;;;;;;;;-3.42;75.08;103842.31;4106623;28;20044;-63
2023/02/07 00:09:13;;;;;;;;;;;;;;;-3.45;75.08;103851.13;4107551;28;20037;-63
2023/02/07 00:11:16;;;;;;;;;;;;;;;-3.50;74.99;103852.94;4106688;28;20026;-63
2023/02/07 00:13:19;;;;;;;;;;;;;;;-3.55;74.85;103850.31;4107784;28;20440;-64
2023/02/07 00:15:21;;;;;;;;;;;;;;;-3.60;74.92;103848.59;4107343;28;20029;-64
2023/02/07 00:17:23;;;;;;;;;;;;;;;-3.57;75.36;103848.56;4106031;28;20021;-62
2023/02/07 00:19:25;;;;;;;;;;;;;;;-3.60;75.26;103840.66;4106742;28;20341;-63
2023/02/07 00:21:27;;;;;;;;;;;;;;;-3.69;74.91;103839.84;4106731;28;20017;-62
2023/02/07 00:23:30;;;;;;;;;;;;;;;-3.75;75.10;103841.63;4106429;28;20473;-62
2023/02/07 00:25:32;;;;;;;;;;;;;;;-3.79;75.36;103840.78;4106105;28;20017;-64
2023/02/07 00:27:33;;;;;;;;;;;;;;;-3.81;75.45;103840.78;4107532;28;20029;-63
2023/02/07 00:29:37;;;;;;;;;;;;;;;-3.86;75.40;103841.69;4107067;28;20045;-64
2023/02/07 00:31:39;;;;;;;;;;;;;;;-3.90;75.48;103839.94;4106091;28;20049;-64
2023/02/07 00:33:41;;;;;;;;;;;;;;;-3.96;75.70;103830.28;4106139;28;20498;-64
2023/02/07 00:35:44;;;;;;;;;;;;;;;-3.99;75.58;103827.66;4090272;28;20030;-64
2023/02/07 00:37:46;;;;;;;;;;;;;;;-4.00;75.65;103836.47;4107460;28;20021;-64
2023/02/07 00:39:48;;;;;;;;;;;;;;;-3.98;75.89;103832.06;4106315;28;20013;-64
2023/02/07 00:41:52;;;;;;;;;;;;;;;-3.91;76.19;103830.28;4106154;28;20452;-64
2023/02/07 00:43:54;;;;;;;;;;;;;;;-3.86;76.32;103831.13;4107356;28;20448;-64
2023/02/07 00:45:59;;;;;;;;;;;;;;;-3.87;76.50;103827.63;4106180;28;20017;-63
2023/02/07 00:48:01;;;;;;;;;;;;;;;-3.87;76.33;103824.97;4106721;28;20473;-61
2023/02/07 00:50:03;;;;;;;;;;;;;;;-3.88;75.74;103822.34;4105276;28;20029;-64
2023/02/07 00:52:05;;;;;;;;;;;;;;;-3.91;75.52;103831.13;4090308;28;20013;-63
2023/02/07 00:54:08;;;;;;;;;;;;;;;-3.95;75.51;103833.81;4106184;28;20017;-63
2023/02/07 00:56:10;;;;;;;;;;;;;;;-3.97;75.58;103827.66;4106761;28;20361;-63
2023/02/07 00:58:12;;;;;;;;;;;;;;;-4.02;75.62;103828.53;4107031;28;20039;-62
2023/02/07 01:00:14;;;;;;;;;;;;;;;-4.03;75.88;103824.16;4106935;28;20025;-63
2023/02/07 01:02:18;;;;;;;;;;;;;;;-4.03;75.69;103823.28;4105681;28;20022;-64
2023/02/07 01:04:20;;;;;;;;;;;;;;;-4.08;75.48;103832.97;4106061;28;20021;-62
2023/02/07 01:06:22;;;;;;;;;;;;;;;-4.10;75.52;103821.56;4106290;28;20028;-63
2023/02/07 01:08:24;;;;;;;;;;;;;;;-4.13;75.26;103835.63;4106718;28;20025;-63
2023/02/07 01:10:26;;;;;;;;;;;;;;;-4.18;75.20;103834.78;4105841;28;20021;-62
2023/02/07 01:12:28;;;;;;;;;;;;;;;-4.24;75.13;103840.94;4105823;28;20429;-63
2023/02/07 01:14:30;;;;;;;;;;;;;;;-4.27;75.20;103843.59;4088529;29;19927;-62
2023/02/07 01:16:33;;;;;;;;;;;;;;;-4.29;75.50;103836.59;4088076;28;20013;-63
2023/02/07 01:18:36;;;;;;;;;;;;;;;-4.29;75.61;103839.22;4104242;28;20611;-63
2023/02/07 01:20:38;;;;;;;;;;;;;;;-4.29;75.56;103831.31;4104502;28;20032;-63
2023/02/07 01:22:40;;;;;;;;;;;;;;;-4.39;75.47;103819.88;4120178;28;20037;-61
2023/02/07 01:24:42;;;;;;;;;;;;;;;-4.35;75.64;103837.47;4089365;28;20049;-63
2023/02/07 01:26:44;;;;;;;;;;;;;;;-4.39;75.81;103833.06;4105945;28;20024;-63
2023/02/07 01:28:46;;;;;;;;;;;;;;;-4.41;75.70;103825.16;4120507;28;20016;-63
2023/02/07 01:30:48;;;;;;;;;;;;;;;-4.44;75.70;103829.56;4105691;28;20367;-62
2023/02/07 01:32:50;;;;;;;;;;;;;;;-4.46;75.75;103816.38;4105060;28;20433;-62
2023/02/07 01:34:53;;;;;;;;;;;;;;;-4.46;75.73;103813.75;4106033;28;20025;-63
2023/02/07 01:36:55;;;;;;;;;;;;;;;-4.43;75.83;103813.75;4105119;28;20024;-63
2023/02/07 01:38:57;;;;;;;;;;;;;;;-4.42;75.69;103812.88;4105953;28;20520;-61
2023/02/07 01:41:00;;;;;;;;;;;;;;;-4.38;75.76;103811.97;4104648;28;20025;-62
2023/02/07 01:43:03;;;;;;;;;;;;;;;-4.32;75.85;103815.47;4105045;28;20445;-63
2023/02/07 01:45:07;;;;;;;;;;;;;;;-4.29;75.44;103812.84;4104583;28;20365;-62
2023/02/07 01:47:09;;;;;;;;;;;;;;;-4.35;75.17;103819.88;4104671;28;20005;-62
2023/02/07 01:49:12;;;;;;;;;;;;;;;-4.38;75.04;103811.09;4104493;28;20014;-63
2023/02/07 01:51:15;;;;;;;;;;;;;;;-4.40;75.00;103810.22;4103882;28;20017;-64
2023/02/07 01:53:17;;;;;;;;;;;;;;;-4.43;74.70;103819.00;4120489;28;20374;-63
2023/02/07 01:55:21;;;;;;;;;;;;;;;-4.47;74.70;103822.53;4120078;28;20013;-62
2023/02/07 01:57:23;;;;;;;;;;;;;;;-4.49;74.63;103820.81;4105100;28;20452;-63
2023/02/07 01:59:26;;;;;;;;;;;;;;;-4.53;74.87;103825.19;4104471;28;20021;-62
2023/02/07 02:01:28;;;;;;;;;;;;;;;-4.56;74.71;103817.28;4119109;28;20017;-63
2023/02/07 02:03:30;;;;;;;;;;;;;;;-4.61;74.70;103819.06;4104643;28;20460;-64
2023/02/07 02:05:32;;;;;;;;;;;;;;;-4.65;74.58;103819.97;4104435;28;20013;-64
2023/02/07 02:07:35;;;;;;;;;;;;;;;-4.72;74.75;103825.25;4105676;28;20163;-63
2023/02/07 02:09:38;;;;;;;;;;;;;;;-4.73;74.99;103819.97;4103188;28;20013;-63
2023/02/07 02:11:53;;;;;;;;;;;;;;;-4.76;75.06;103823.47;4103731;28;20010;-63
2023/02/07 02:13:57;;;;;;;;;;;;;;;-4.77;75.00;103813.78;4105577;28;20033;-62
2023/02/07 02:16:02;;;;;;;;;;;;;;;-4.79;75.16;103812.94;4104386;28;20033;-63
2023/02/07 02:18:13;;;;;;;;;;;;;;;-4.74;75.39;103807.66;4053069;28;1891918;-63
2023/02/07 02:20:27;;;;;;;;;;;;;;;-4.69;75.23;103807.66;4104274;28;20013;-63
2023/02/07 02:22:50;;;;;;;;;;;;;;;-4.61;75.07;103800.59;4104968;28;20017;-63
2023/02/07 02:25:07;;;;;;;;;;;;;;;-4.51;74.90;103797.06;4073767;28;20017;-63
2023/02/07 02:27:12;;;;;;;;;;;;;;;-4.45;74.40;103796.16;4087853;28;20444;-63
2023/02/07 02:29:44;;;;;;;;;;;;;;;-4.41;74.11;103793.50;4104884;28;20036;-62
2023/02/07 02:31:51;;;;;;;;;;;;;;;-4.39;73.65;103802.31;4040289;29;20757;-61
2023/02/07 02:33:55;;;;;;;;;;;;;;;-4.42;73.12;103802.31;4076715;28;20046;-62
2023/02/07 02:35:59;;;;;;;;;;;;;;;-4.48;72.91;103801.44;4104972;28;20021;-61
2023/02/07 02:38:02;;;;;;;;;;;;;;;-4.53;72.76;103793.53;4105832;28;20025;-63
2023/02/07 02:40:06;;;;;;;;;;;;;;;-4.57;72.77;103799.72;4089290;28;20029;-63
2023/02/07 02:42:09;;;;;;;;;;;;;;;-4.56;73.18;103802.34;4102048;28;20065;-62
2023/02/07 02:44:12;;;;;;;;;;;;;;;-4.55;72.95;103793.53;4103230;28;20460;-63
2023/02/07 02:46:15;;;;;;;;;;;;;;;-4.60;72.98;103789.16;4104154;28;20374;-62
2023/02/07 02:48:18;;;;;;;;;;;;;;;-4.65;73.21;103790.94;4104094;28;20457;-63
2023/02/07 02:50:22;;;;;;;;;;;;;;;-4.71;73.36;103787.41;4105144;28;20021;-62
2023/02/07 02:52:24;;;;;;;;;;;;;;;-4.62;73.52;103790.94;4104827;28;20020;-61
2023/02/07 02:54:27;;;;;;;;;;;;;;;-4.54;73.66;103792.66;4119999;28;20374;-63
2023/02/07 02:56:36;;;;;;;;;;;;;;;-4.45;73.39;103793.50;4119999;28;20021;-63
2023/02/07 02:58:41;;;;;;;;;;;;;;;-4.41;72.75;103788.22;4108240;28;20025;-62
2023/02/07 03:00:49;;;;;;;;;;;;;;;-4.54;71.84;103794.44;4107288;28;20010;-63
2023/02/07 03:02:53;;;;;;;;;;;;;;;-4.69;71.91;103790.06;4108427;28;20370;-63
2023/02/07 03:05:07;;;;;;;;;;;;;;;-4.72;72.14;103792.69;4107583;28;20399;-62
2023/02/07 03:07:14;;;;;;;;;;;;;;;-4.73;72.48;103791.81;4098830;28;20412;-62
2023/02/07 03:09:20;;;;;;;;;;;;;;;-4.71;72.55;103792.69;4123330;28;20020;-63
2023/02/07 03:11:22;;;;;;;;;;;;;;;-4.69;72.55;103787.41;4076126;28;20017;-62
2023/02/07 03:13:26;;;;;;;;;;;;;;;-4.70;72.30;103783.03;4083743;28;20010;-62
2023/02/07 03:15:33;;;;;;;;;;;;;;;-4.73;71.99;103781.28;4107773;28;20018;-62
2023/02/07 03:17:37;;;;;;;;;;;;;;;-4.69;72.13;103781.28;4108405;28;20104;-63
2023/02/07 03:19:41;;;;;;;;;;;;;;;-4.71;71.80;103771.59;4107873;28;20393;-63
2023/02/07 03:21:43;;;;;;;;;;;;;;;-4.75;71.53;103767.22;4122029;28;20013;-63
2023/02/07 03:23:47;;;;;;;;;;;;;;;-4.78;71.44;103767.22;4108389;28;20033;-63
2023/02/07 03:25:50;;;;;;;;;;;;;;;-4.76;71.64;103770.72;4107703;28;20444;-62
2023/02/07 03:27:54;;;;;;;;;;;;;;;-4.78;71.25;103764.59;4108648;28;20017;-63
2023/02/07 03:29:56;;;;;;;;;;;;;;;-4.87;71.18;103759.34;4108051;28;20017;-63
2023/02/07 03:32:00;;;;;;;;;;;;;;;-4.90;71.55;103754.94;4122304;28;20024;-63
2023/02/07 03:34:04;;;;;;;;;;;;;;;-4.95;71.79;103753.22;4108005;28;19930;-63
2023/02/07 03:36:08;;;;;;;;;;;;;;;-5.04;71.47;103753.22;4106807;28;20025;-63
2023/02/07 03:38:11;;;;;;;;;;;;;;;-5.07;71.62;103754.09;4107571;28;20365;-63
2023/02/07 03:40:14;;;;;;;;;;;;;;;-5.06;71.75;103763.75;4107886;28;20479;-63
2023/02/07 03:42:16;;;;;;;;;;;;;;;-5.03;72.01;103762.84;4107422;28;20021;-63
2023/02/07 03:44:18;;;;;;;;;;;;;;;-5.04;72.24;103766.41;4106128;28;20021;-63
2023/02/07 03:46:21;;;;;;;;;;;;;;;-5.03;72.32;103761.13;4106833;28;20038;-63
2023/02/07 03:48:23;;;;;;;;;;;;;;;-5.08;72.30;103766.41;4107435;28;20433;-63
2023/02/07 03:50:24;;;;;;;;;;;;;;;-5.13;72.54;103760.22;4106573;28;20025;-64
2023/02/07 03:52:27;;;;;;;;;;;;;;;-5.19;72.35;103776.03;4107381;28;21592;-63
2023/02/07 03:54:29;;;;;;;;;;;;;;;-5.18;72.57;103769.91;4106893;28;20045;-63
2023/02/07 03:56:32;;;;;;;;;;;;;;;-5.14;72.62;103769.03;4106504;28;20009;-64
2023/02/07 03:58:34;;;;;;;;;;;;;;;-5.10;72.51;103765.50;4107464;28;20441;-64
2023/02/07 04:00:36;;;;;;;;;;;;;;;-5.08;72.53;103761.13;4107153;28;20021;-64
2023/02/07 04:02:38;;;;;;;;;;;;;;;-5.11;72.80;103763.75;4105187;28;20022;-63
2023/02/07 04:04:40;;;;;;;;;;;;;;;-5.07;72.90;103760.22;4106759;28;20021;-63
2023/02/07 04:06:42;;;;;;;;;;;;;;;-5.11;72.84;103770.78;4106828;28;20444;-64
2023/02/07 04:08:44;;;;;;;;;;;;;;;-5.11;73.04;103763.75;4107146;28;20021;-63
2023/02/07 04:10:56;;;;;;;;;;;;;;;-5.14;72.95;103755.84;4120922;28;20035;-62
2023/02/07 04:12:59;;;;;;;;;;;;;;;-5.22;72.93;103754.97;4105626;28;20021;-63
2023/02/07 04:15:01;;;;;;;;;;;;;;;-5.20;73.10;103762.88;4107854;28;20436;-63
2023/02/07 04:17:03;;;;;;;;;;;;;;;-5.25;73.03;103761.13;4105749;28;20061;-62
2023/02/07 04:19:05;;;;;;;;;;;;;;;-5.23;73.17;103768.13;4103501;28;20013;-63
2023/02/07 04:21:07;;;;;;;;;;;;;;;-5.28;73.08;103771.66;4102314;28;20374;-62
2023/02/07 04:23:09;;;;;;;;;;;;;;;-5.31;73.20;103776.06;4107128;28;20025;-64
2023/02/07 04:25:11;;;;;;;;;;;;;;;-5.35;73.29;103780.44;4106568;28;20029;-63
2023/02/07 04:27:13;;;;;;;;;;;;;;;-5.37;73.73;103776.94;4106061;28;20363;-63
2023/02/07 04:29:16;;;;;;;;;;;;;;;-5.36;74.16;103778.69;4107149;28;20033;-63
2023/02/07 04:31:18;;;;;;;;;;;;;;;-5.40;74.21;103774.28;4104617;28;20018;-62
2023/02/07 04:33:20;;;;;;;;;;;;;;;-5.41;74.17;103774.28;4106744;28;20009;-63
2023/02/07 04:35:22;;;;;;;;;;;;;;;-5.43;74.20;103769.03;4106209;28;20027;-63
2023/02/07 04:37:24;;;;;;;;;;;;;;;-5.45;74.06;103779.56;4107101;28;20025;-63
2023/02/07 04:39:26;;;;;;;;;;;;;;;-5.46;74.15;103779.56;4107038;28;20037;-63
2023/02/07 04:41:28;;;;;;;;;;;;;;;-5.47;74.46;103775.16;4105799;28;19982;-63
2023/02/07 04:43:30;;;;;;;;;;;;;;;-5.45;74.91;103770.78;4106371;28;20026;-63
2023/02/07 04:45:34;;;;;;;;;;;;;;;-5.47;74.96;103773.41;4103444;28;20037;-64
2023/02/07 04:47:36;;;;;;;;;;;;;;;-5.51;74.84;103774.28;4102150;28;20013;-64
2023/02/07 04:49:38;;;;;;;;;;;;;;;-5.53;74.77;103769.88;4105052;28;20008;-60
2023/02/07 04:51:40;;;;;;;;;;;;;;;-5.48;74.97;103776.06;4106526;28;20026;-64
2023/02/07 04:53:42;;;;;;;;;;;;;;;-5.46;74.85;103772.53;4106563;28;20018;-63
2023/02/07 04:55:47;;;;;;;;;;;;;;;-5.48;74.44;103769.03;4105835;28;20029;-63
2023/02/07 04:57:49;;;;;;;;;;;;;;;-5.48;74.36;103776.91;4106893;28;20025;-62
2023/02/07 04:59:51;;;;;;;;;;;;;;;-5.40;74.36;103778.69;4105592;28;20012;-62
2023/02/07 05:01:54;;;;;;;;;;;;;;;-5.32;74.29;103779.56;4105692;28;20450;-63
2023/02/07 05:03:56;;;;;;;;;;;;;;;-5.25;73.95;103776.03;4106585;28;20373;-64
2023/02/07 05:05:58;;;;;;;;;;;;;;;-5.19;73.31;103781.31;4105019;28;20018;-63
2023/02/07 05:08:00;;;;;;;;;;;;;;;-5.23;72.80;103776.03;4106951;28;20025;-63
2023/02/07 05:10:02;;;;;;;;;;;;;;;-5.30;72.52;103772.53;4106452;28;20013;-62
2023/02/07 05:12:04;;;;;;;;;;;;;;;-5.35;72.29;103780.44;4105259;28;20025;-63
2023/02/07 05:14:06;;;;;;;;;;;;;;;-5.38;72.46;103787.47;4105679;28;20025;-62
2023/02/07 05:16:08;;;;;;;;;;;;;;;-5.41;72.54;103787.47;4089039;28;20016;-63
2023/02/07 05:18:12;;;;;;;;;;;;;;;-5.39;72.90;103783.97;4105463;28;20383;-63
2023/02/07 05:20:13;;;;;;;;;;;;;;;-5.35;72.66;103779.56;4105396;28;20371;-63
2023/02/07 05:22:15;;;;;;;;;;;;;;;-5.36;72.60;103785.69;4104571;28;20553;-62
2023/02/07 05:24:18;;;;;;;;;;;;;;;-5.40;72.59;103791.88;4106238;28;20036;-62
2023/02/07 05:26:20;;;;;;;;;;;;;;;-5.44;72.79;103791.88;4105948;28;20012;-63
2023/02/07 05:28:22;;;;;;;;;;;;;;;-5.48;72.88;103795.34;4103922;28;20579;-63
2023/02/07 05:30:24;;;;;;;;;;;;;;;-5.52;73.15;103785.69;4104161;28;20449;-64
2023/02/07 05:34:46;;;;;;;;;;;;;;;-5.58;73.05;103790.94;4105399;28;20029;-63
2023/02/07 05:36:48;;;;;;;;;;;;;;;-5.61;73.03;103791.84;4104772;28;20047;-64
2023/02/07 05:38:50;;;;;;;;;;;;;;;-5.66;72.97;103788.31;4104858;28;20367;-61
2023/02/07 05:40:52;;;;;;;;;;;;;;;-5.67;73.12;103791.81;4104386;28;20024;-62
2023/02/07 05:42:54;;;;;;;;;;;;;;;-5.59;73.25;103796.25;4103487;28;20358;-64
2023/02/07 05:44:56;;;;;;;;;;;;;;;-5.53;73.10;103791.84;4101651;28;20017;-62
2023/02/07 05:46:58;;;;;;;;;;;;;;;-5.45;72.89;103799.75;4099076;28;20021;-63
2023/02/07 05:49:00;;;;;;;;;;;;;;;-5.45;72.25;103799.75;4101734;28;20017;-62
2023/02/07 05:51:03;;;;;;;;;;;;;;;-5.51;71.84;103795.34;4103472;28;20029;-65
2023/02/07 05:53:06;;;;;;;;;;;;;;;-5.50;72.11;103796.22;4102385;28;20034;-63
2023/02/07 05:55:08;;;;;;;;;;;;;;;-5.52;71.96;103793.59;4102171;28;20112;-63
2023/02/07 05:57:10;;;;;;;;;;;;;;;-5.46;72.16;103795.38;4100657;28;20061;-61
2023/02/07 05:59:12;;;;;;;;;;;;;;;-5.43;72.10;103795.38;4103011;28;19997;-62
2023/02/07 06:01:14;;;;;;;;;;;;;;;-5.41;72.03;103790.09;4102307;28;20021;-63
2023/02/07 06:03:16;;;;;;;;;;;;;;;-5.37;72.09;103797.13;4090695;28;20336;-63
2023/02/07 06:05:19;;;;;;;;;;;;;;;-5.37;71.92;103803.28;4102885;28;20547;-62
2023/02/07 06:07:23;;;;;;;;;;;;;;;-5.36;71.82;103798.88;4101848;28;20471;-62
2023/02/07 06:09:25;;;;;;;;;;;;;;;-5.37;71.73;103807.69;4104302;28;20016;-62
2023/02/07 06:11:27;;;;;;;;;;;;;;;-5.45;71.61;103808.53;4104511;28;20088;-64
2023/02/07 06:13:29;;;;;;;;;;;;;;;-5.49;71.88;103806.75;4105280;28;20029;-67
2023/02/07 06:15:31;;;;;;;;;;;;;;;-5.51;71.79;103815.56;4104547;28;20331;-63
2023/02/07 06:17:33;;;;;;;;;;;;;;;-5.49;71.83;103814.66;4103887;28;20025;-60
2023/02/07 06:19:34;;;;;;;;;;;;;;;-5.51;71.63;103808.53;4105819;28;20030;-63
2023/02/07 06:21:36;;;;;;;;;;;;;;;-5.53;71.50;103823.47;4105034;28;20042;-62
2023/02/07 06:23:40;;;;;;;;;;;;;;;-5.50;71.56;103819.94;4104134;28;20024;-63
2023/02/07 06:25:42;;;;;;;;;;;;;;;-5.54;71.41;103832.22;4104192;28;20017;-63
2023/02/07 06:27:44;;;;;;;;;;;;;;;-5.51;71.61;103828.72;4105239;28;20420;-63
2023/02/07 06:29:46;;;;;;;;;;;;;;;-5.48;71.65;103826.09;4104044;28;20020;-61
2023/02/07 06:31:48;;;;;;;;;;;;;;;-5.49;71.69;103827.84;4104191;28;20021;-62
2023/02/07 06:33:50;;;;;;;;;;;;;;;-5.56;71.14;103825.19;4108763;28;20022;-61
2023/02/07 06:35:54;;;;;;;;;;;;;;;-5.62;71.39;103813.75;4107841;28;20026;-62
2023/02/07 06:37:56;;;;;;;;;;;;;;;-5.64;71.64;103826.06;4108673;28;20026;-63
2023/02/07 06:39:59;;;;;;;;;;;;;;;-5.67;71.88;103825.19;4108529;28;20009;-63
2023/02/07 06:42:01;;;;;;;;;;;;;;;-5.59;72.34;103826.06;4107597;28;20021;-63
2023/02/07 06:44:03;;;;;;;;;;;;;;;-5.58;72.02;103830.44;4108301;28;20025;-62
2023/02/07 06:46:05;;;;;;;;;;;;;;;-5.58;71.70;103840.13;4108329;28;20037;-63
2023/02/07 06:48:07;;;;;;;;;;;;;;;-5.56;71.69;103839.25;4107905;28;21404;-63
2023/02/07 06:50:09;;;;;;;;;;;;;;;-5.53;71.78;103831.34;4108584;28;20452;-62
2023/02/07 06:52:11;;;;;;;;;;;;;;;-5.52;71.49;103835.72;4108632;28;20016;-61
2023/02/07 06:54:13;;;;;;;;;;;;;;;-5.52;71.37;103834.84;4108806;28;20018;-60
2023/02/07 06:56:16;;;;;;;;;;;;;;;-5.53;71.41;103839.25;4107111;28;20012;-62
2023/02/07 06:58:18;;;;;;;;;;;;;;;-5.56;71.25;103839.25;4107664;28;20024;-62
2023/02/07 07:00:21;;;;;;;;;;;;;;;-5.59;71.50;103833.97;4108652;28;20028;-61
2023/02/07 07:02:23;;;;;;;;;;;;;;;-5.62;71.68;103839.22;4108051;28;20040;-62
2023/02/07 07:04:25;;;;;;;;;;;;;;;-5.72;71.86;103838.34;4107755;28;20013;-63
2023/02/07 07:06:27;;;;;;;;;;;;;;;-5.77;71.84;103841.81;4108732;28;20013;-63
2023/02/07 07:08:29;;;;;;;;;;;;;;;-5.83;72.56;103848.81;4108406;28;20857;-63
2023/02/07 07:10:32;;;;;;;;;;;;;;;-5.81;73.00;103844.44;4107607;28;20041;-60
2023/02/07 07:12:35;;;;;;;;;;;;;;;-5.72;73.42;103853.22;4107776;28;20033;-61
2023/02/07 07:14:37;;;;;;;;;;;;;;;-5.65;73.29;103853.25;4108097;28;20013;-62
2023/02/07 07:16:40;;;;;;;;;;;;;;;-5.59;72.99;103846.28;4107375;28;20025;-62
2023/02/07 07:18:42;;;;;;;;;;;;;;;-5.58;72.87;103840.97;4107799;28;20389;-62
2023/02/07 07:20:44;;;;;;;;;;;;;;;-5.58;73.04;103845.38;4107066;28;20028;-61
2023/02/07 07:22:46;;;;;;;;;;;;;;;-5.60;72.96;103837.47;4108227;28;20012;-62
2023/02/07 07:24:49;;;;;;;;;;;;;;;-5.57;72.98;103831.34;4108602;28;20020;-62
2023/02/07 07:26:51;;;;;;;;;;;;;;;-5.54;72.84;103823.44;4107804;28;20021;-61
2023/02/07 07:28:57;;;;;;;;;;;;;;;-5.56;72.90;103826.09;4108376;28;20053;-62
2023/02/07 07:31:02;;;;;;;;;;;;;;;-5.58;73.09;103819.03;4107569;28;20020;-61
2023/02/07 07:33:04;;;;;;;;;;;;;;;-5.59;73.38;103812.91;4107559;28;20046;-64
2023/02/07 07:35:07;;;;;;;;;;;;;;;-5.54;73.43;103818.19;4108231;28;20037;-61
2023/02/07 07:37:09;;;;;;;;;;;;;;;-5.52;73.47;103814.66;4107466;28;20040;-63
2023/02/07 07:39:12;;;;;;;;;;;;;;;-5.48;73.61;103816.44;4107862;28;20017;-62
2023/02/07 07:41:13;;;;;;;;;;;;;;;-5.46;73.47;103822.56;4106908;28;20013;-62
2023/02/07 07:43:16;;;;;;;;;;;;;;;-5.45;73.53;103812.94;4106603;28;20005;-62
2023/02/07 07:45:22;;;;;;;;;;;;;;;-5.42;73.59;103820.84;4108168;28;20013;-63
2023/02/07 07:47:26;;;;;;;;;;;;;;;-5.40;73.67;103821.72;4107363;28;20017;-61
2023/02/07 07:49:28;;;;;;;;;;;;;;;-5.39;73.77;103814.69;4106459;28;20365;-62
2023/02/07 07:51:30;;;;;;;;;;;;;;;-5.36;73.98;103814.69;4107235;28;20025;-63
2023/02/07 07:53:32;;;;;;;;;;;;;;;-5.29;74.29;103812.06;4107475;28;20013;-62
2023/02/07 07:55:34;;;;;;;;;;;;;;;-5.21;74.30;103816.47;4106595;28;20033;-62
2023/02/07 07:57:36;;;;;;;;;;;;;;;-5.17;74.57;103821.75;4107726;28;20009;-63
2023/02/07 07:59:38;;;;;;;;;;;;;;;-5.12;74.56;103827.03;4107710;28;20020;-61
2023/02/07 08:01:41;;;;;;;;;;;;;;;-5.07;74.74;103833.16;4106637;28;20018;-63
2023/02/07 08:03:43;;;;;;;;;;;;;;;-5.02;74.80;103836.66;4106790;28;20025;-62
2023/02/07 08:05:45;;;;;;;;;;;;;;;-5.00;75.05;103836.66;4106285;28;20127;-63
2023/02/07 08:07:47;;;;;;;;;;;;;;;-4.93;75.37;103841.06;4107319;28;20017;-63
2023/02/07 08:09:49;;;;;;;;;;;;;;;-4.87;75.55;103838.44;4107487;28;20021;-61
2023/02/07 08:11:51;;;;;;;;;;;;;;;-4.82;75.92;103849.84;4106980;28;20440;-62
2023/02/07 08:13:53;;;;;;;;;;;;;;;-4.77;75.98;103848.06;4106867;28;20017;-61
2023/02/07 08:15:55;;;;;;;;;;;;;;;-4.69;76.16;103844.56;4106405;28;20029;-61
2023/02/07 08:17:58;;;;;;;;;;;;;;;-4.65;76.54;103841.94;4107468;28;20629;-60
2023/02/07 08:20:01;;;;;;;;;;;;;;;-4.57;76.62;103841.91;4107262;28;20029;-63
2023/02/07 08:22:02;;;;;;;;;;;;;;;-4.49;76.87;103845.41;4105571;28;20018;-63
2023/02/07 08:24:05;;;;;;;;;;;;;;;-4.40;76.85;103839.25;4106366;28;20013;-63
2023/02/07 08:26:07;;;;;;;;;;;;;;;-4.31;76.93;103836.59;4106424;28;20369;-63
2023/02/07 08:28:09;;;;;;;;;;;;;;;-4.24;76.83;103840.09;4107005;28;20029;-64
2023/02/07 08:30:11;;;;;;;;;;;;;;;-4.17;76.83;103847.06;4106376;28;20468;-62
2023/02/07 08:32:13;;;;;;;;;;;;;;;-4.11;76.92;103833.00;4106455;28;20024;-62
2023/02/07 08:34:22;;;;;;;;;;;;;;;-4.05;76.86;103838.25;4107218;28;20017;-63
2023/02/07 08:36:24;;;;;;;;;;;;;;;-3.98;76.96;103834.72;4106765;28;20025;-63
2023/02/07 08:38:26;;;;;;;;;;;;;;;-3.91;76.78;103836.41;4120820;28;20021;-62
2023/02/07 08:40:28;;;;;;;;;;;;;;;-3.86;76.58;103834.63;4105991;28;20025;-62
2023/02/07 08:42:30;;;;;;;;;;;;;;;-3.79;76.74;103840.78;4107007;28;20041;-64
2023/02/07 08:44:32;;;;;;;;;;;;;;;-3.72;76.62;103839.84;4107396;28;20033;-63
2023/02/07 08:46:34;;;;;;;;;;;;;;;-3.64;76.74;103839.81;4106621;28;20436;-61
2023/02/07 08:48:36;;;;;;;;;;;;;;;-3.55;76.79;103844.19;4106801;28;20025;-62
2023/02/07 08:50:39;;;;;;;;;;;;;;;-3.48;76.74;103841.50;4106587;28;20029;-63
2023/02/07 08:52:41;;;;;;;;;;;;;;;-3.41;76.77;103839.69;4106768;28;20363;-63
2023/02/07 08:54:43;;;;;;;;;;;;;;;-3.33;76.47;103839.63;4105088;28;20117;-63
2023/02/07 08:56:45;;;;;;;;;;;;;;;-3.32;76.28;103826.41;4106316;28;20029;-61
2023/02/07 08:58:47;;;;;;;;;;;;;;;-3.21;76.03;103836.91;4106918;28;20146;-62
2023/02/07 09:00:49;;;;;;;;;;;;;;;-3.17;75.72;103835.09;4106001;28;20429;-62
2023/02/07 09:02:51;;;;;;;;;;;;;;;-3.13;75.62;103835.06;4106307;28;20025;-63
2023/02/07 09:04:54;;;;;;;;;;;;;;;-3.08;75.51;103832.38;4106214;28;20330;-61
2023/02/07 09:06:57;;;;;;;;;;;;;;;-3.01;75.37;103834.09;4105911;28;20126;-63
2023/02/07 09:09:00;;;;;;;;;;;;;;;-2.94;75.33;103830.50;4106754;28;20363;-63
2023/02/07 09:11:04;;;;;;;;;;;;;;;-2.87;75.28;103823.38;4105438;28;20012;-63
2023/02/07 09:13:06;;;;;;;;;;;;;;;-2.81;75.06;103815.38;4106360;28;20021;-62
2023/02/07 09:15:08;;;;;;;;;;;;;;;-2.74;74.96;103811.81;4105906;28;20025;-63
2023/02/07 09:17:10;;;;;;;;;;;;;;;-2.69;74.95;103811.75;4106142;28;20032;-62
2023/02/07 09:19:12;;;;;;;;;;;;;;;-2.63;74.42;103802.91;4106517;28;20009;-62
2023/02/07 09:21:14;;;;;;;;;;;;;;;-2.56;73.91;103804.56;4105741;28;20363;-63
2023/02/07 09:23:18;;;;;;;;;;;;;;;-2.50;73.48;103803.63;4106403;28;20444;-63
2023/02/07 09:25:20;;;;;;;;;;;;;;;-2.44;73.58;103808.84;4105918;28;20018;-62
2023/02/07 09:27:22;;;;;;;;;;;;;;;-2.39;73.62;103822.91;4104507;28;20070;-63
2023/02/07 09:29:24;;;;;;;;;;;;;;;-2.36;73.47;103821.09;4105957;28;20021;-62
2023/02/07 09:31:26;;;;;;;;;;;;;;;-2.31;73.35;103825.47;4105615;28;20017;-61
2023/02/07 09:33:28;;;;;;;;;;;;;;;-2.27;73.21;103830.72;4105456;28;20020;-62
2023/02/07 09:35:30;;;;;;;;;;;;;;;-2.24;72.85;103829.78;4105223;28;20037;-62
2023/02/07 09:37:32;;;;;;;;;;;;;;;-2.20;72.81;103832.38;4105864;28;20026;-63
2023/02/07 09:39:39;;;;;;;;;;;;;;;-2.15;72.96;103834.97;4105999;28;20021;-64
2023/02/07 09:41:42;;;;;;;;;;;;;;;-2.12;72.97;103836.72;4105436;28;20476;-63
2023/02/07 09:43:48;;;;;;;;;;;;;;;-2.10;72.56;103834.94;4106179;28;20024;-63
2023/02/07 09:45:52;;;;;;;;;;;;;;;-2.08;72.57;103835.81;4105462;28;20017;-59
2023/02/07 09:47:58;;;;;;;;;;;;;;;-2.04;72.46;103829.56;4105606;28;20017;-63
2023/02/07 09:50:00;;;;;;;;;;;;;;;-2.00;72.21;103831.28;4105865;28;20452;-63
2023/02/07 09:52:02;;;;;;;;;;;;;;;-1.96;72.24;103830.31;4104126;28;20021;-63
2023/02/07 09:54:04;;;;;;;;;;;;;;;-1.93;71.99;103835.59;4105899;28;20056;-62
2023/02/07 09:56:07;;;;;;;;;;;;;;;-1.89;72.27;103839.09;4105256;28;20383;-62
2023/02/07 09:58:12;;;;;;;;;;;;;;;-1.87;72.03;103839.94;4106067;28;20476;-63
2023/02/07 10:00:19;;;;;;;;;;;;;;;-1.83;71.55;103849.63;4105896;28;20038;-63
2023/02/07 10:02:22;;;;;;;;;;;;;;;-1.76;71.70;103845.97;4105352;28;20021;-64
2023/02/07 10:04:29;;;;;;;;;;;;;;;-1.74;71.25;103846.84;4105636;28;20029;-64
2023/02/07 10:06:31;;;;;;;;;;;;;;;-1.66;71.34;103860.00;4105102;28;19941;-62
2023/02/07 10:08:33;;;;;;;;;;;;;;;-1.61;71.33;103860.81;4106203;28;20029;-63
2023/02/07 10:10:36;;;;;;;;;;;;;;;-1.59;71.05;103860.78;4104348;28;20034;-63
2023/02/07 10:13:05;;;;;;;;;;;;;;;-1.58;70.99;103865.16;4105750;28;20025;-63
2023/02/07 10:15:15;;;;;;;;;;;;;;;-1.54;71.26;103870.41;4070849;28;20370;-61
2023/02/07 10:17:25;;;;;;;;;;;;;;;-1.51;71.15;103867.72;4105010;28;20034;-63
2023/02/07 10:19:30;;;;;;;;;;;;;;;-1.49;70.75;103870.34;4105494;28;20013;-62
2023/02/07 10:21:34;;;;;;;;;;;;;;;-1.43;70.45;103869.41;4104677;28;20021;-62
2023/02/07 10:23:54;;;;;;;;;;;;;;;-1.38;69.89;103859.59;4105579;28;20021;-62
2023/02/07 10:25:59;;;;;;;;;;;;;;;-1.31;70.04;103861.25;4104066;28;20024;-62
2023/02/07 10:28:04;;;;;;;;;;;;;;;-1.25;70.00;103855.88;4104949;28;20049;-62
2023/02/07 10:30:09;;;;;;;;;;;;;;;-1.20;69.75;103855.78;4105371;28;20371;-62
2023/02/07 10:32:14;;;;;;;;;;;;;;;-1.15;69.93;103860.13;4105121;28;20025;-63
2023/02/07 10:34:18;;;;;;;;;;;;;;;-1.13;69.53;103853.03;4105290;28;20480;-64